Time;durP1;ratioP1;P1;durP2;ratioP2;P2;SDS_P1;SDS_P2;PMS_P1;PMS_P2;Temp;Humidity;BMP_temperature;BMP_pressure;BME280_temperature;BME280_humidity;BME280_pressure;Samples;Min_cycle;Max_cycle;Signal;HPM_P1;HPM_P2
2023/11/18 00:02:09;;;;;;;;;;;21.70;52.60;;;;;;5043882;28;19993;-49
2023/11/18 00:04:34;;;;;;;;;;;21.50;53.10;;;;;;5043637;28;19916;-49
2023/11/18 00:07:01;;;;;;;;;;;21.30;53.50;;;;;;5043398;28;19955;-48
2023/11/18 00:09:26;;;;;;;;;;;21.10;53.90;;;;;;5045311;28;19920;-48
2023/11/18 00:11:52;;;;;;;;;;;20.90;54.30;;;;;;5042820;28;19913;-50
2023/11/18 00:14:17;;;;;;;;;;;20.70;54.80;;;;;;5044743;28;19917;-50
2023/11/18 00:16:43;;;;;;;;;;;20.60;55.30;;;;;;5043255;28;20004;-52
2023/11/18 00:19:09;;;;;;;;;;;20.40;55.60;;;;;;5043689;28;19909;-51
2023/11/18 00:21:36;;;;;;;;;;;20.20;55.90;;;;;;5042624;28;20376;-51
2023/11/18 00:24:01;;;;;;;;;;;20.10;57.00;;;;;;5042696;28;20368;-51
2023/11/18 00:26:27;;;;;;;;;;;19.90;56.60;;;;;;5043197;28;19916;-48
2023/11/18 00:28:52;;;;;;;;;;;19.80;56.90;;;;;;5045584;28;19966;-48
2023/11/18 00:31:17;;;;;;;;;;;19.70;57.30;;;;;;5040390;28;19944;-48
2023/11/18 00:33:43;;;;;;;;;;;19.60;57.60;;;;;;5041922;28;19916;-48
2023/11/18 00:36:08;;;;;;;;;;;19.50;57.70;;;;;;5042857;28;19915;-51
2023/11/18 00:38:34;;;;;;;;;;;19.40;57.90;;;;;;5042622;28;19951;-48
2023/11/18 00:41:00;;;;;;;;;;;19.30;58.20;;;;;;5043347;28;19913;-52
2023/11/18 00:43:25;;;;;;;;;;;19.30;58.30;;;;;;5042608;28;19912;-53
2023/11/18 00:45:51;;;;;;;;;;;19.20;58.50;;;;;;5041794;28;19984;-47
2023/11/18 00:48:16;;;;;;;;;;;19.10;58.60;;;;;;5043110;28;19909;-49
2023/11/18 00:50:42;;;;;;;;;;;19.00;58.80;;;;;;5038231;28;19916;-52
2023/11/18 00:53:07;;;;;;;;;;;18.90;58.90;;;;;;5029353;28;19925;-52
2023/11/18 00:55:33;;;;;;;;;;;18.90;59.10;;;;;;5036377;28;19913;-48
2023/11/18 00:57:58;;;;;;;;;;;18.80;59.10;;;;;;5034571;28;20000;-50
2023/11/18 01:00:26;;;;;;;;;;;18.80;59.20;;;;;;5037198;28;20378;-53
2023/11/18 01:02:53;;;;;;;;;;;18.70;59.40;;;;;;5030452;28;19908;-51
2023/11/18 01:05:18;;;;;;;;;;;18.70;59.60;;;;;;5036899;28;21482;-50
2023/11/18 01:07:44;;;;;;;;;;;18.60;59.60;;;;;;5036521;28;19963;-50
2023/11/18 01:10:10;;;;;;;;;;;18.60;59.70;;;;;;5032598;28;19974;-52
2023/11/18 01:12:35;;;;;;;;;;;18.50;59.80;;;;;;5035195;28;19916;-48
2023/11/18 01:15:02;;;;;;;;;;;18.50;59.70;;;;;;5035986;28;19931;-50
2023/11/18 01:17:29;;;;;;;;;;;18.50;59.90;;;;;;5032959;28;19913;-49
2023/11/18 01:19:54;;;;;;;;;;;18.40;59.90;;;;;;5036091;28;19916;-51
2023/11/18 01:22:21;;;;;;;;;;;18.40;60.10;;;;;;5034351;28;19913;-48
2023/11/18 01:24:47;;;;;;;;;;;18.30;60.10;;;;;;5035702;28;20000;-51
2023/11/18 01:27:12;;;;;;;;;;;18.30;60.30;;;;;;5034751;28;19992;-49
2023/11/18 01:29:41;;;;;;;;;;;18.20;60.30;;;;;;5035860;28;20437;-51
2023/11/18 01:32:09;;;;;;;;;;;18.20;60.30;;;;;;5034113;28;19917;-49
2023/11/18 01:34:36;;;;;;;;;;;18.20;60.40;;;;;;5038233;28;19909;-49
2023/11/18 01:37:01;;;;;;;;;;;18.20;60.50;;;;;;5040124;28;20004;-49
2023/11/18 01:39:27;;;;;;;;;;;18.10;60.50;;;;;;5040445;28;20567;-48
2023/11/18 01:41:52;;;;;;;;;;;18.10;60.60;;;;;;5038595;28;19913;-47
2023/11/18 01:44:19;;;;;;;;;;;18.10;60.60;;;;;;5037992;28;19908;-51
2023/11/18 01:46:45;;;;;;;;;;;18.10;60.70;;;;;;5035938;28;19909;-49
2023/11/18 01:49:13;;;;;;;;;;;18.10;60.70;;;;;;5038215;28;19920;-49
2023/11/18 01:51:43;;;;;;;;;;;18.10;60.70;;;;;;5039113;28;19913;-50
2023/11/18 01:54:09;;;;;;;;;;;18.10;60.70;;;;;;5038231;28;20175;-52
2023/11/18 01:56:37;;;;;;;;;;;18.00;60.70;;;;;;5040384;28;19913;-53
2023/11/18 01:59:04;;;;;;;;;;;18.00;60.70;;;;;;5029415;28;19908;-48
2023/11/18 02:01:30;;;;;;;;;;;18.00;60.80;;;;;;5051770;28;19913;-49
2023/11/18 02:03:55;;;;;;;;;;;17.90;60.80;;;;;;5040394;28;20020;-51
2023/11/18 02:06:21;;;;;;;;;;;17.90;60.80;;;;;;5039407;28;19923;-50
2023/11/18 02:08:47;;;;;;;;;;;17.90;60.80;;;;;;5036435;28;19908;-52
2023/11/18 02:11:20;;;;;;;;;;;17.90;60.90;;;;;;5037445;28;19932;-49
2023/11/18 02:13:47;;;;;;;;;;;17.90;60.80;;;;;;5036315;28;20094;-47
2023/11/18 02:16:14;;;;;;;;;;;17.90;60.90;;;;;;5037632;28;20262;-49
2023/11/18 02:18:40;;;;;;;;;;;17.90;61.00;;;;;;5036811;28;19955;-52
2023/11/18 02:21:08;;;;;;;;;;;17.80;60.90;;;;;;5037242;28;19953;-50
2023/11/18 02:23:33;;;;;;;;;;;17.80;61.00;;;;;;5037053;28;20425;-52
2023/11/18 02:26:01;;;;;;;;;;;17.80;61.00;;;;;;5037842;28;19912;-49
2023/11/18 02:28:27;;;;;;;;;;;17.80;61.00;;;;;;5048071;28;19909;-50
2023/11/18 02:30:56;;;;;;;;;;;17.80;61.00;;;;;;5046548;28;19917;-49
2023/11/18 02:33:33;;;;;;;;;;;17.80;61.00;;;;;;5044840;28;19955;-50
2023/11/18 02:36:05;;;;;;;;;;;17.80;61.10;;;;;;5043118;28;19912;-47
2023/11/18 02:38:35;;;;;;;;;;;17.80;61.10;;;;;;5042501;28;20277;-49
2023/11/18 02:41:06;;;;;;;;;;;17.70;61.00;;;;;;5044721;28;19974;-51
2023/11/18 02:43:32;;;;;;;;;;;17.70;61.10;;;;;;5042162;28;19908;-48
2023/11/18 02:45:58;;;;;;;;;;;17.70;61.10;;;;;;5044548;28;19917;-49
2023/11/18 02:48:26;;;;;;;;;;;17.70;61.20;;;;;;5046287;28;20822;-48
2023/11/18 02:50:51;;;;;;;;;;;17.70;61.10;;;;;;5044220;28;19916;-48
2023/11/18 02:53:17;;;;;;;;;;;17.70;61.20;;;;;;5046575;28;19923;-49
2023/11/18 02:55:42;;;;;;;;;;;17.70;61.20;;;;;;5043550;28;19916;-48
2023/11/18 02:58:08;;;;;;;;;;;17.60;61.20;;;;;;5045716;28;20014;-52
2023/11/18 03:00:33;;;;;;;;;;;17.60;61.10;;;;;;5042603;28;19956;-49
2023/11/18 03:02:59;;;;;;;;;;;17.60;61.20;;;;;;5036841;28;20357;-50
2023/11/18 03:05:26;;;;;;;;;;;17.60;61.20;;;;;;5038095;28;19921;-50
2023/11/18 03:07:53;;;;;;;;;;;17.60;61.90;;;;;;5039579;28;19915;-50
2023/11/18 03:10:22;;;;;;;;;;;17.60;61.30;;;;;;5038178;28;19999;-47
2023/11/18 03:12:48;;;;;;;;;;;17.60;61.30;;;;;;5040873;28;20058;-50
2023/11/18 03:15:16;;;;;;;;;;;17.60;61.30;;;;;;5035252;28;20286;-50
2023/11/18 03:17:51;;;;;;;;;;;17.60;61.30;;;;;;5030115;28;19965;-48
2023/11/18 03:20:17;;;;;;;;;;;17.60;61.30;;;;;;5035950;28;19920;-48
2023/11/18 03:22:44;;;;;;;;;;;17.50;61.30;;;;;;5038952;28;19954;-48
2023/11/18 03:25:10;;;;;;;;;;;17.50;61.30;;;;;;5035366;28;19948;-49
2023/11/18 03:27:36;;;;;;;;;;;17.50;61.40;;;;;;5043906;28;19954;-50
2023/11/18 03:30:01;;;;;;;;;;;17.50;61.30;;;;;;5040287;28;19913;-51
2023/11/18 03:32:27;;;;;;;;;;;17.50;61.30;;;;;;5036406;28;19913;-59
2023/11/18 03:34:52;;;;;;;;;;;17.50;61.30;;;;;;5040152;28;20226;-48
2023/11/18 03:37:18;;;;;;;;;;;17.50;61.30;;;;;;5039536;28;19908;-50
2023/11/18 03:39:44;;;;;;;;;;;17.50;61.40;;;;;;5039811;28;19915;-50
2023/11/18 03:42:10;;;;;;;;;;;17.50;61.50;;;;;;5039608;28;19915;-51
2023/11/18 03:44:37;;;;;;;;;;;17.50;61.40;;;;;;5043019;28;19908;-50
2023/11/18 03:47:03;;;;;;;;;;;17.40;61.40;;;;;;5041950;28;19978;-48
2023/11/18 03:49:28;;;;;;;;;;;17.50;61.50;;;;;;5040729;28;19916;-48
2023/11/18 03:51:54;;;;;;;;;;;17.40;61.50;;;;;;5044719;28;20370;-48
2023/11/18 03:54:20;;;;;;;;;;;17.40;61.50;;;;;;5041157;28;19919;-52
2023/11/18 03:56:45;;;;;;;;;;;17.40;61.40;;;;;;5043005;28;19917;-49
2023/11/18 03:59:11;;;;;;;;;;;17.40;61.50;;;;;;5044348;28;20362;-48
2023/11/18 04:01:36;;;;;;;;;;;17.40;61.50;;;;;;5042116;28;19909;-49
2023/11/18 04:04:04;;;;;;;;;;;17.40;61.50;;;;;;5042633;28;19909;-52
2023/11/18 04:06:29;;;;;;;;;;;17.40;61.50;;;;;;5044521;28;20285;-53
2023/11/18 04:08:54;;;;;;;;;;;17.40;61.50;;;;;;5043769;28;19909;-48
2023/11/18 04:11:20;;;;;;;;;;;17.40;61.50;;;;;;5042221;28;19916;-47
2023/11/18 04:13:45;;;;;;;;;;;17.40;61.60;;;;;;5046170;28;20088;-49
2023/11/18 04:16:17;;;;;;;;;;;17.40;61.60;;;;;;5044068;28;19909;-48
2023/11/18 04:18:43;;;;;;;;;;;17.40;61.60;;;;;;5046335;28;20382;-53
2023/11/18 04:21:10;;;;;;;;;;;17.30;61.50;;;;;;5045412;28;19961;-50
2023/11/18 04:23:39;;;;;;;;;;;17.40;61.60;;;;;;5042875;28;19915;-48
2023/11/18 04:26:04;;;;;;;;;;;17.30;61.60;;;;;;5041918;28;19915;-49
2023/11/18 04:28:30;;;;;;;;;;;17.30;61.60;;;;;;5045018;28;19908;-49
2023/11/18 04:30:56;;;;;;;;;;;17.30;61.60;;;;;;5042810;28;20296;-50
2023/11/18 04:33:21;;;;;;;;;;;17.30;61.60;;;;;;5042167;28;19909;-47
2023/11/18 04:35:47;;;;;;;;;;;17.30;61.60;;;;;;5044056;28;25116;-47
2023/11/18 04:38:12;;;;;;;;;;;17.30;61.60;;;;;;5041664;28;20540;-48
2023/11/18 04:40:41;;;;;;;;;;;17.30;61.60;;;;;;5043430;28;19939;-47
2023/11/18 04:43:06;;;;;;;;;;;17.30;61.60;;;;;;5043474;28;19996;-48
2023/11/18 04:45:32;;;;;;;;;;;17.30;61.60;;;;;;5041147;28;19988;-48
2023/11/18 04:47:59;;;;;;;;;;;17.30;61.60;;;;;;5045875;28;20377;-55
2023/11/18 04:50:24;;;;;;;;;;;17.30;61.60;;;;;;5045644;28;20031;-50
2023/11/18 04:52:50;;;;;;;;;;;17.30;61.70;;;;;;5038771;22;20012;-48
2023/11/18 04:55:15;;;;;;;;;;;17.30;62.30;;;;;;5061503;28;20368;-50
2023/11/18 04:57:41;;;;;;;;;;;17.20;61.60;;;;;;5054179;28;19994;-47
2023/11/18 05:00:10;;;;;;;;;;;17.30;61.70;;;;;;5061150;28;20433;-47
2023/11/18 05:02:37;;;;;;;;;;;17.20;61.60;;;;;;5062246;28;19955;-47
2023/11/18 05:05:04;;;;;;;;;;;17.30;61.70;;;;;;5043455;28;19908;-47
2023/11/18 05:07:29;;;;;;;;;;;17.20;61.60;;;;;;5049907;28;20170;-47
2023/11/18 05:09:55;;;;;;;;;;;17.20;61.60;;;;;;5058673;28;19970;-51
2023/11/18 05:12:20;;;;;;;;;;;17.20;61.70;;;;;;5048292;28;19912;-49
2023/11/18 05:14:45;;;;;;;;;;;17.20;61.70;;;;;;5044738;28;19917;-50
2023/11/18 05:17:11;;;;;;;;;;;17.20;61.60;;;;;;5052418;28;19909;-49
2023/11/18 05:19:36;;;;;;;;;;;17.20;61.70;;;;;;5062242;28;19913;-46
2023/11/18 05:22:02;;;;;;;;;;;17.20;61.80;;;;;;5061951;28;20270;-50
2023/11/18 05:24:27;;;;;;;;;;;17.20;61.70;;;;;;5061718;28;20728;-49
2023/11/18 05:26:53;;;;;;;;;;;17.20;61.70;;;;;;5062695;28;19912;-48
2023/11/18 05:29:20;;;;;;;;;;;17.20;61.80;;;;;;5058370;28;20329;-54
2023/11/18 05:31:46;;;;;;;;;;;17.20;61.80;;;;;;5064331;28;19920;-49
2023/11/18 05:34:12;;;;;;;;;;;17.20;61.80;;;;;;5059453;28;19908;-51
2023/11/18 05:36:40;;;;;;;;;;;17.20;61.70;;;;;;5064174;28;19957;-49
2023/11/18 05:39:05;;;;;;;;;;;17.10;61.70;;;;;;5062885;28;20385;-48
2023/11/18 05:41:35;;;;;;;;;;;17.10;61.70;;;;;;5065072;28;19915;-51
2023/11/18 05:44:00;;;;;;;;;;;17.10;61.70;;;;;;5060931;28;20051;-49
2023/11/18 05:46:29;;;;;;;;;;;17.10;61.80;;;;;;5063036;28;19999;-51
2023/11/18 05:48:55;;;;;;;;;;;17.10;61.70;;;;;;5061485;28;19916;-53
2023/11/18 05:51:25;;;;;;;;;;;17.10;61.70;;;;;;5062278;28;19916;-53
2023/11/18 05:53:51;;;;;;;;;;;17.10;61.70;;;;;;5050945;28;19970;-50
2023/11/18 05:56:17;;;;;;;;;;;17.10;61.70;;;;;;5055345;28;20383;-52
2023/11/18 05:58:45;;;;;;;;;;;17.10;61.80;;;;;;5054181;28;19908;-52
2023/11/18 06:01:12;;;;;;;;;;;17.20;61.70;;;;;;5047171;28;19909;-49
2023/11/18 06:03:41;;;;;;;;;;;17.40;61.40;;;;;;5043599;28;20369;-50
2023/11/18 06:06:10;;;;;;;;;;;17.90;60.30;;;;;;5060756;28;19918;-49
2023/11/18 06:08:35;;;;;;;;;;;18.70;58.60;;;;;;5060220;28;19916;-53
2023/11/18 06:11:12;;;;;;;;;;;19.70;56.60;;;;;;5046173;28;19919;-49
2023/11/18 06:13:43;;;;;;;;;;;20.50;54.60;;;;;;5054833;28;19915;-51
2023/11/18 06:16:09;;;;;;;;;;;21.00;53.40;;;;;;5059810;28;19947;-51
2023/11/18 06:18:36;;;;;;;;;;;21.40;52.30;;;;;;5065560;28;19936;-49
2023/11/18 06:21:01;;;;;;;;;;;21.80;51.60;;;;;;5052090;28;19971;-51
2023/11/18 06:23:27;;;;;;;;;;;22.20;50.90;;;;;;5060152;28;20397;-50
2023/11/18 06:25:52;;;;;;;;;;;22.30;50.60;;;;;;5066272;28;20385;-48
2023/11/18 06:28:18;;;;;;;;;;;22.30;50.50;;;;;;5059893;28;21432;-52
2023/11/18 06:30:44;;;;;;;;;;;22.30;50.70;;;;;;5051187;28;19912;-50
2023/11/18 06:33:09;;;;;;;;;;;22.30;50.80;;;;;;5060301;28;19969;-50
2023/11/18 06:35:35;;;;;;;;;;;22.10;51.10;;;;;;5067510;28;19912;-49
2023/11/18 06:38:00;;;;;;;;;;;22.00;51.50;;;;;;5061942;28;19912;-52
2023/11/18 06:40:27;;;;;;;;;;;21.90;51.80;;;;;;5062329;28;19909;-51
2023/11/18 06:43:01;;;;;;;;;;;21.60;52.20;;;;;;5059370;28;19912;-50
2023/11/18 06:45:27;;;;;;;;;;;21.50;52.70;;;;;;5041292;28;20338;-52
2023/11/18 06:47:52;;;;;;;;;;;21.30;53.10;;;;;;5059932;28;19950;-50
2023/11/18 06:50:24;;;;;;;;;;;21.10;53.50;;;;;;5060164;28;19956;-50
2023/11/18 06:52:50;;;;;;;;;;;20.90;53.90;;;;;;5051204;28;19925;-51
2023/11/18 06:55:16;;;;;;;;;;;20.70;54.30;;;;;;5055794;28;20293;-50
2023/11/18 06:57:44;;;;;;;;;;;20.60;54.80;;;;;;5050327;28;19909;-49
2023/11/18 07:00:10;;;;;;;;;;;20.40;55.10;;;;;;5065870;28;19975;-49
2023/11/18 07:02:36;;;;;;;;;;;20.30;55.50;;;;;;5057258;28;19909;-48
2023/11/18 07:05:01;;;;;;;;;;;20.10;56.00;;;;;;5057678;28;20427;-48
2023/11/18 07:07:26;;;;;;;;;;;19.90;56.40;;;;;;5055332;28;19916;-53
2023/11/18 07:09:52;;;;;;;;;;;19.80;56.60;;;;;;5056086;28;19951;-51
2023/11/18 07:12:19;;;;;;;;;;;19.70;56.90;;;;;;5057065;28;19969;-48
2023/11/18 07:14:44;;;;;;;;;;;19.60;57.20;;;;;;5055608;28;19927;-48
2023/11/18 07:17:10;;;;;;;;;;;19.40;57.40;;;;;;5057027;28;20354;-49
2023/11/18 07:19:35;;;;;;;;;;;19.40;57.70;;;;;;5051717;28;19916;-49
2023/11/18 07:22:02;;;;;;;;;;;19.30;57.90;;;;;;5049172;28;19976;-51
2023/11/18 07:24:29;;;;;;;;;;;19.20;58.10;;;;;;5058674;28;19940;-49
2023/11/18 07:26:55;;;;;;;;;;;19.20;58.30;;;;;;5049083;28;19909;-48
2023/11/18 07:29:23;;;;;;;;;;;19.10;58.40;;;;;;5058990;28;19996;-52
2023/11/18 07:31:49;;;;;;;;;;;19.00;58.60;;;;;;5057039;28;19908;-50
2023/11/18 07:34:15;;;;;;;;;;;18.90;58.70;;;;;;5055772;28;19916;-49
2023/11/18 07:36:40;;;;;;;;;;;18.80;58.80;;;;;;5062454;28;19913;-49
2023/11/18 07:39:15;;;;;;;;;;;18.80;59.00;;;;;;5060369;28;20358;-50
2023/11/18 07:41:41;;;;;;;;;;;18.70;59.00;;;;;;5059089;28;19915;-50
2023/11/18 07:44:06;;;;;;;;;;;18.70;59.10;;;;;;5057449;28;19908;-50
2023/11/18 07:46:32;;;;;;;;;;;18.60;59.20;;;;;;5061611;28;19920;-48
2023/11/18 07:48:57;;;;;;;;;;;18.60;59.40;;;;;;5060356;28;19915;-49
2023/11/18 07:51:24;;;;;;;;;;;18.50;59.60;;;;;;5057942;28;20011;-48
2023/11/18 07:53:50;;;;;;;;;;;18.40;59.50;;;;;;5062095;28;20304;-48
2023/11/18 07:56:16;;;;;;;;;;;18.40;59.60;;;;;;5059512;28;19916;-53
2023/11/18 07:58:47;;;;;;;;;;;18.40;59.70;;;;;;5062014;28;19909;-52
2023/11/18 08:01:15;;;;;;;;;;;18.30;59.70;;;;;;5059124;28;19915;-51
2023/11/18 08:03:41;;;;;;;;;;;18.30;59.80;;;;;;5044773;28;20357;-50
2023/11/18 08:06:07;;;;;;;;;;;18.20;59.90;;;;;;5033985;28;19931;-53
2023/11/18 08:08:33;;;;;;;;;;;18.20;60.00;;;;;;5048414;28;19913;-52
2023/11/18 08:10:59;;;;;;;;;;;18.20;60.10;;;;;;5058758;28;19920;-48
2023/11/18 08:13:25;;;;;;;;;;;18.10;60.10;;;;;;5055204;28;19940;-51
2023/11/18 08:15:51;;;;;;;;;;;18.10;60.20;;;;;;5054974;28;19931;-48
2023/11/18 08:18:17;;;;;;;;;;;18.10;60.20;;;;;;5048014;28;20530;-50
2023/11/18 08:20:43;;;;;;;;;;;18.10;60.30;;;;;;5056838;28;19908;-49
2023/11/18 08:23:09;;;;;;;;;;;18.00;60.30;;;;;;5065797;28;20331;-48
2023/11/18 08:25:38;;;;;;;;;;;18.00;60.30;;;;;;5054747;28;19959;-48
2023/11/18 08:28:04;;;;;;;;;;;18.00;60.40;;;;;;5052716;28;20443;-49
2023/11/18 08:30:30;;;;;;;;;;;18.00;60.40;;;;;;5061814;28;19920;-53
2023/11/18 08:32:55;;;;;;;;;;;18.00;60.50;;;;;;5059443;28;19909;-50
2023/11/18 08:35:21;;;;;;;;;;;18.00;60.40;;;;;;5053344;28;19936;-48
2023/11/18 08:37:47;;;;;;;;;;;18.00;60.50;;;;;;5050328;28;19927;-48
2023/11/18 08:40:16;;;;;;;;;;;17.90;60.50;;;;;;5044465;28;19995;-52
2023/11/18 08:42:49;;;;;;;;;;;17.90;60.60;;;;;;5051846;28;19987;-49
2023/11/18 08:45:29;;;;;;;;;;;17.90;60.50;;;;;;5055128;28;20003;-52
2023/11/18 08:47:58;;;;;;;;;;;17.90;60.60;;;;;;5061803;28;20285;-49
2023/11/18 08:50:23;;;;;;;;;;;17.80;60.60;;;;;;5061390;28;19991;-49
2023/11/18 08:52:52;;;;;;;;;;;17.80;60.60;;;;;;5057365;28;20010;-50
2023/11/18 08:55:19;;;;;;;;;;;17.80;60.60;;;;;;5057958;28;19999;-48
2023/11/18 08:57:57;;;;;;;;;;;17.80;60.70;;;;;;5056287;28;19908;-49
2023/11/18 09:00:46;;;;;;;;;;;17.80;60.70;;;;;;5058638;28;19913;-51
2023/11/18 09:03:24;;;;;;;;;;;17.80;60.70;;;;;;5056275;28;19915;-52
2023/11/18 09:06:03;;;;;;;;;;;17.70;60.60;;;;;;5060863;28;20344;-51
2023/11/18 09:08:36;;;;;;;;;;;17.70;60.80;;;;;;5053283;28;19980;-50
2023/11/18 09:11:10;;;;;;;;;;;17.70;60.80;;;;;;5061827;28;19928;-47
2023/11/18 09:13:36;;;;;;;;;;;17.70;60.80;;;;;;5053477;28;19931;-50
2023/11/18 09:16:09;;;;;;;;;;;17.70;60.80;;;;;;5059643;28;19912;-49
2023/11/18 09:18:35;;;;;;;;;;;17.70;60.80;;;;;;5058514;28;19919;-49
2023/11/18 09:21:01;;;;;;;;;;;17.70;60.90;;;;;;5059675;28;19908;-48
2023/11/18 09:23:27;;;;;;;;;;;17.70;60.90;;;;;;5065876;28;19916;-51
2023/11/18 09:25:53;;;;;;;;;;;17.60;60.80;;;;;;5059515;28;19913;-49
2023/11/18 09:28:24;;;;;;;;;;;17.70;60.80;;;;;;5065081;28;19915;-48
2023/11/18 09:30:50;;;;;;;;;;;17.70;60.90;;;;;;5063332;28;19916;-51
2023/11/18 09:33:25;;;;;;;;;;;17.60;61.00;;;;;;5062050;28;19915;-48
2023/11/18 09:36:00;;;;;;;;;;;17.60;61.00;;;;;;5064196;28;20373;-49
2023/11/18 09:38:40;;;;;;;;;;;17.60;61.00;;;;;;5048912;28;19989;-48
2023/11/18 09:41:10;;;;;;;;;;;17.60;61.10;;;;;;5051691;28;19909;-50
2023/11/18 09:43:46;;;;;;;;;;;17.60;61.10;;;;;;5053364;28;19909;-51
2023/11/18 09:46:14;;;;;;;;;;;17.60;61.10;;;;;;5051271;28;19909;-50
2023/11/18 09:48:41;;;;;;;;;;;17.60;61.20;;;;;;5056512;28;20362;-49
2023/11/18 09:51:08;;;;;;;;;;;17.60;61.30;;;;;;5049974;28;20393;-51
2023/11/18 09:53:37;;;;;;;;;;;17.60;61.30;;;;;;5053001;28;19920;-53
2023/11/18 09:56:09;;;;;;;;;;;17.50;61.30;;;;;;5056524;28;19908;-51
2023/11/18 09:58:41;;;;;;;;;;;17.50;61.30;;;;;;5060469;28;20309;-54
2023/11/18 10:01:07;;;;;;;;;;;17.50;61.30;;;;;;5058735;28;19916;-53
2023/11/18 10:03:35;;;;;;;;;;;17.50;61.40;;;;;;5058254;28;19916;-53
2023/11/18 10:06:04;;;;;;;;;;;17.50;61.30;;;;;;5063540;28;20011;-54
2023/11/18 10:08:31;;;;;;;;;;;17.50;61.40;;;;;;5060365;28;20662;-48
2023/11/18 10:11:04;;;;;;;;;;;17.50;61.30;;;;;;5057193;28;20005;-51
2023/11/18 10:13:34;;;;;;;;;;;17.50;61.30;;;;;;5066135;28;19935;-49
2023/11/18 10:16:00;;;;;;;;;;;17.50;61.30;;;;;;5067991;28;20273;-49
2023/11/18 10:18:28;;;;;;;;;;;17.50;61.30;;;;;;5066064;23;20488;-58
2023/11/18 10:21:19;;;;;;;;;;;17.50;61.40;;;;;;5043128;22;19983;-56
2023/11/18 10:24:14;;;;;;;;;;;17.50;61.40;;;;;;5046093;28;20065;-56
2023/11/18 10:26:40;;;;;;;;;;;17.50;61.30;;;;;;5062086;28;19912;-59
2023/11/18 10:29:08;;;;;;;;;;;17.50;61.30;;;;;;5073312;28;19912;-57
2023/11/18 10:31:37;;;;;;;;;;;17.50;61.30;;;;;;5068232;28;19932;-57
2023/11/18 10:34:04;;;;;;;;;;;17.50;61.30;;;;;;5067268;28;19920;-56
2023/11/18 10:36:33;;;;;;;;;;;17.50;61.30;;;;;;4165255;28;10000694;-54
2023/11/18 10:39:00;;;;;;;;;;;17.50;61.30;;;;;;4163529;28;10000758;-56
2023/11/18 10:41:25;;;;;;;;;;;17.50;61.30;;;;;;5050400;28;19912;-55
2023/11/18 10:44:14;;;;;;;;;;;17.40;61.30;;;;;;5053185;28;20402;-58
2023/11/18 10:46:53;;;;;;;;;;;17.40;61.30;;;;;;5053588;28;19909;-57
2023/11/18 10:49:20;;;;;;;;;;;17.40;61.30;;;;;;5051420;28;19912;-58
2023/11/18 10:51:47;;;;;;;;;;;17.40;61.30;;;;;;5053474;28;19962;-59
2023/11/18 10:54:17;;;;;;;;;;;17.40;62.00;;;;;;5053015;28;19916;-56
2023/11/18 10:56:46;;;;;;;;;;;17.40;61.30;;;;;;5054245;28;19909;-57
2023/11/18 10:59:16;;;;;;;;;;;17.40;61.30;;;;;;5052992;28;19912;-56
2023/11/18 11:01:45;;;;;;;;;;;17.40;61.30;;;;;;5056438;28;20593;-57
2023/11/18 11:04:11;;;;;;;;;;;17.40;61.40;;;;;;5053828;28;19909;-56
2023/11/18 11:06:46;;;;;;;;;;;17.40;61.40;;;;;;5061233;28;19919;-57
2023/11/18 11:09:16;;;;;;;;;;;17.40;61.40;;;;;;5063499;28;19909;-57
2023/11/18 11:12:03;;;;;;;;;;;17.40;61.40;;;;;;5065759;28;19908;-55
2023/11/18 11:14:36;;;;;;;;;;;17.40;61.30;;;;;;5063412;28;19931;-57
2023/11/18 11:17:12;;;;;;;;;;;17.40;61.20;;;;;;5062706;28;19919;-57
2023/11/18 11:19:48;;;;;;;;;;;17.40;61.20;;;;;;5065474;28;19918;-58
2023/11/18 11:22:20;;;;;;;;;;;17.40;61.20;;;;;;5056343;28;19938;-56
2023/11/18 11:24:55;;;;;;;;;;;17.40;61.30;;;;;;5064720;28;19908;-57
2023/11/18 11:27:39;;;;;;;;;;;17.40;61.30;;;;;;5066470;28;20235;-58
2023/11/18 11:30:10;;;;;;;;;;;17.30;61.30;;;;;;5069875;28;19927;-55
2023/11/18 11:32:45;;;;;;;;;;;17.30;61.20;;;;;;5063720;28;20054;-55
2023/11/18 11:35:18;;;;;;;;;;;17.30;61.30;;;;;;5069790;28;19908;-57
2023/11/18 11:37:44;;;;;;;;;;;17.30;61.40;;;;;;5061253;28;19916;-58
2023/11/18 11:40:11;;;;;;;;;;;17.30;61.40;;;;;;5065921;28;19908;-55
2023/11/18 11:42:42;;;;;;;;;;;17.30;61.40;;;;;;5066569;28;19956;-57
2023/11/18 11:45:19;;;;;;;;;;;17.30;61.40;;;;;;5063732;28;19970;-57
2023/11/18 11:47:51;;;;;;;;;;;17.30;61.40;;;;;;5049972;28;19919;-58
2023/11/18 11:50:21;;;;;;;;;;;17.30;61.40;;;;;;5062599;28;19912;-58
2023/11/18 11:52:53;;;;;;;;;;;17.30;61.40;;;;;;5063680;28;19995;-57
2023/11/18 11:55:28;;;;;;;;;;;17.30;61.40;;;;;;5063211;28;20007;-57
2023/11/18 11:57:57;;;;;;;;;;;17.30;61.40;;;;;;5065214;28;20555;-57
2023/11/18 12:00:25;;;;;;;;;;;17.30;61.40;;;;;;5066916;28;19939;-56
2023/11/18 12:02:55;;;;;;;;;;;17.30;61.40;;;;;;5068105;28;19914;-57
2023/11/18 12:05:25;;;;;;;;;;;17.30;61.40;;;;;;5063320;28;19916;-57
2023/11/18 12:07:51;;;;;;;;;;;17.20;61.40;;;;;;5066289;28;19916;-58
2023/11/18 12:10:20;;;;;;;;;;;17.30;61.60;;;;;;5061643;28;19912;-56
2023/11/18 12:12:45;;;;;;;;;;;17.20;61.50;;;;;;5060561;28;19999;-56
2023/11/18 12:15:20;;;;;;;;;;;17.30;61.60;;;;;;5062850;28;20359;-58
2023/11/18 12:18:00;;;;;;;;;;;17.30;61.60;;;;;;5064584;28;19944;-57
2023/11/18 12:20:42;;;;;;;;;;;17.20;61.80;;;;;;5061964;28;20385;-57
2023/11/18 12:23:14;;;;;;;;;;;17.20;61.80;;;;;;5061899;28;20458;-58
2023/11/18 12:25:43;;;;;;;;;;;17.20;61.90;;;;;;5063246;28;19916;-55
2023/11/18 12:28:09;;;;;;;;;;;17.20;61.90;;;;;;5066725;28;19917;-58
2023/11/18 12:30:37;;;;;;;;;;;17.20;62.00;;;;;;5062221;28;19912;-57
2023/11/18 12:33:10;;;;;;;;;;;17.20;62.00;;;;;;5060620;28;19935;-56
2023/11/18 12:35:41;;;;;;;;;;;17.20;62.00;;;;;;5065257;28;21125;-55
2023/11/18 12:38:22;;;;;;;;;;;17.20;61.90;;;;;;5065244;28;20017;-58
2023/11/18 12:40:59;;;;;;;;;;;17.30;61.70;;;;;;5063800;28;19912;-56
2023/11/18 12:44:02;;;;;;;;;;;17.60;61.20;;;;;;5065879;28;20888;-55
2023/11/18 12:46:42;;;;;;;;;;;18.20;59.80;;;;;;4969991;28;19910;-57
2023/11/18 12:49:15;;;;;;;;;;;19.00;58.10;;;;;;5057890;28;19908;-57
2023/11/18 12:51:43;;;;;;;;;;;19.60;56.40;;;;;;5059867;28;19920;-57
2023/11/18 12:54:11;;;;;;;;;;;20.30;54.90;;;;;;5066486;28;19916;-58
2023/11/18 12:56:38;;;;;;;;;;;20.80;53.70;;;;;;5066639;28;19919;-58
2023/11/18 12:59:06;;;;;;;;;;;21.10;53.00;;;;;;5062785;28;19916;-57
2023/11/18 13:01:36;;;;;;;;;;;21.40;52.50;;;;;;5063185;28;19908;-57
2023/11/18 13:04:04;;;;;;;;;;;21.80;51.80;;;;;;5062656;28;19908;-57
2023/11/18 13:06:30;;;;;;;;;;;22.10;51.30;;;;;;5063950;28;19908;-59
2023/11/18 13:08:56;;;;;;;;;;;22.20;51.00;;;;;;5067295;28;20007;-59
2023/11/18 13:11:23;;;;;;;;;;;22.10;51.20;;;;;;5061533;28;19916;-57
2023/11/18 13:13:50;;;;;;;;;;;22.00;51.50;;;;;;5063804;28;19912;-56
2023/11/18 13:16:17;;;;;;;;;;;21.80;51.90;;;;;;5066956;28;19908;-56
2023/11/18 13:18:44;;;;;;;;;;;21.60;52.30;;;;;;5066421;28;19908;-57
2023/11/18 13:21:13;;;;;;;;;;;21.40;52.90;;;;;;5060270;28;20284;-58
2023/11/18 13:23:38;;;;;;;;;;;21.20;53.40;;;;;;5062118;28;19920;-57
2023/11/18 13:26:05;;;;;;;;;;;21.00;53.90;;;;;;5059213;28;19958;-58
2023/11/18 13:28:31;;;;;;;;;;;20.80;54.30;;;;;;5056539;28;19916;-55
2023/11/18 13:30:57;;;;;;;;;;;20.60;55.30;;;;;;5062266;28;19959;-55
2023/11/18 13:33:23;;;;;;;;;;;20.40;55.60;;;;;;5060109;28;19955;-56
2023/11/18 13:35:48;;;;;;;;;;;20.30;55.90;;;;;;5063953;28;19927;-56
2023/11/18 13:38:14;;;;;;;;;;;20.20;56.10;;;;;;5069732;28;20548;-60
2023/11/18 13:40:46;;;;;;;;;;;20.10;56.60;;;;;;5064394;28;19978;-57
2023/11/18 13:43:12;;;;;;;;;;;19.90;56.80;;;;;;5069153;28;20428;-56
2023/11/18 13:45:38;;;;;;;;;;;19.70;57.10;;;;;;5062557;28;19916;-56
2023/11/18 13:48:04;;;;;;;;;;;19.60;57.40;;;;;;5066356;28;19920;-57
2023/11/18 13:50:30;;;;;;;;;;;19.50;57.70;;;;;;5061915;28;19916;-57
2023/11/18 13:52:56;;;;;;;;;;;19.40;58.00;;;;;;5064431;28;20561;-58
2023/11/18 13:55:27;;;;;;;;;;;19.30;58.20;;;;;;5068960;28;20365;-55
2023/11/18 13:57:57;;;;;;;;;;;19.20;58.40;;;;;;5065048;28;20368;-56
2023/11/18 14:00:26;;;;;;;;;;;19.20;58.60;;;;;;5056882;28;19917;-56
2023/11/18 14:02:53;;;;;;;;;;;19.10;58.70;;;;;;5062362;28;20549;-56
2023/11/18 14:05:21;;;;;;;;;;;19.00;59.00;;;;;;5066432;28;19912;-57
2023/11/18 14:07:59;;;;;;;;;;;18.90;59.10;;;;;;5066065;28;19995;-55
2023/11/18 14:10:27;;;;;;;;;;;18.90;59.20;;;;;;5064251;28;19912;-57
2023/11/18 14:13:00;;;;;;;;;;;18.80;59.30;;;;;;5061641;28;20305;-56
2023/11/18 14:15:26;;;;;;;;;;;18.70;59.50;;;;;;5062085;28;19926;-57
2023/11/18 14:17:52;;;;;;;;;;;18.60;59.60;;;;;;5061659;28;20817;-56
2023/11/18 14:20:19;;;;;;;;;;;18.60;59.90;;;;;;5062636;28;19914;-56
2023/11/18 14:22:45;;;;;;;;;;;18.50;60.00;;;;;;5064098;28;20391;-56